sensor_id;sensor_type;location;lat;lon;timestamp;pressure;altitude;pressure_sealevel;temperature
71807;BMP280;59655;42.590;23.364;2023-04-24T00:01:00;91250.41;;;11.02
71807;BMP280;59655;42.590;23.364;2023-04-24T00:03:26;91253.16;;;10.86
71807;BMP280;59655;42.590;23.364;2023-04-24T00:05:53;91262.97;;;10.68
71807;BMP280;59655;42.590;23.364;2023-04-24T00:08:20;91256.22;;;10.75
71807;BMP280;59655;42.590;23.364;2023-04-24T00:10:45;91246.09;;;10.81
71807;BMP280;59655;42.590;23.364;2023-04-24T00:13:11;91246.09;;;10.81
71807;BMP280;59655;42.590;23.364;2023-04-24T00:15:36;91241.59;;;10.91
71807;BMP280;59655;42.590;23.364;2023-04-24T00:18:02;91238.72;;;10.97
71807;BMP280;59655;42.590;23.364;2023-04-24T00:20:28;91226.72;;;10.96
71807;BMP280;59655;42.590;23.364;2023-04-24T00:22:55;91224.91;;;10.99
71807;BMP280;59655;42.590;23.364;2023-04-24T00:25:20;91216.66;;;10.94
71807;BMP280;59655;42.590;23.364;2023-04-24T00:27:46;91215.84;;;10.84
71807;BMP280;59655;42.590;23.364;2023-04-24T00:30:11;91216.69;;;10.87
71807;BMP280;59655;42.590;23.364;2023-04-24T00:32:37;91213.84;;;10.92
71807;BMP280;59655;42.590;23.364;2023-04-24T00:35:02;91212.56;;;10.93
71807;BMP280;59655;42.590;23.364;2023-04-24T00:37:28;91208.53;;;10.92
71807;BMP280;59655;42.590;23.364;2023-04-24T00:39:53;91212.63;;;10.86
71807;BMP280;59655;42.590;23.364;2023-04-24T00:42:20;91200.91;;;10.89
71807;BMP280;59655;42.590;23.364;2023-04-24T00:44:45;91195.41;;;10.94
71807;BMP280;59655;42.590;23.364;2023-04-24T00:47:12;91199.66;;;10.90
71807;BMP280;59655;42.590;23.364;2023-04-24T00:49:38;91204.34;;;10.82
71807;BMP280;59655;42.590;23.364;2023-04-24T00:52:03;91209.81;;;10.84
71807;BMP280;59655;42.590;23.364;2023-04-24T00:54:32;91206.44;;;10.83
71807;BMP280;59655;42.590;23.364;2023-04-24T00:56:58;91215.06;;;10.66
71807;BMP280;59655;42.590;23.364;2023-04-24T00:59:23;91215.41;;;10.63
71807;BMP280;59655;42.590;23.364;2023-04-24T01:01:49;91212.44;;;10.59
71807;BMP280;59655;42.590;23.364;2023-04-24T01:04:16;91214.88;;;10.31
71807;BMP280;59655;42.590;23.364;2023-04-24T01:06:43;91224.53;;;10.52
71807;BMP280;59655;42.590;23.364;2023-04-24T01:09:10;91222.84;;;10.64
71807;BMP280;59655;42.590;23.364;2023-04-24T01:11:37;91227.88;;;10.52
71807;BMP280;59655;42.590;23.364;2023-04-24T01:14:02;91223.47;;;10.47
71807;BMP280;59655;42.590;23.364;2023-04-24T01:16:28;91224.72;;;10.46
71807;BMP280;59655;42.590;23.364;2023-04-24T01:18:53;91221.34;;;10.53
71807;BMP280;59655;42.590;23.364;2023-04-24T01:21:19;91217.34;;;10.70
71807;BMP280;59655;42.590;23.364;2023-04-24T01:23:46;91218.00;;;10.70
71807;BMP280;59655;42.590;23.364;2023-04-24T01:26:14;91208.13;;;10.71
71807;BMP280;59655;42.590;23.364;2023-04-24T01:28:39;91212.41;;;10.66
71807;BMP280;59655;42.590;23.364;2023-04-24T01:31:05;91204.22;;;10.72
71807;BMP280;59655;42.590;23.364;2023-04-24T01:33:31;91201.50;;;10.80
71807;BMP280;59655;42.590;23.364;2023-04-24T01:35:57;91207.88;;;10.84
71807;BMP280;59655;42.590;23.364;2023-04-24T01:38:22;91204.50;;;10.84
71807;BMP280;59655;42.590;23.364;2023-04-24T01:40:49;91198.09;;;10.87
71807;BMP280;59655;42.590;23.364;2023-04-24T01:43:15;91171.56;;;10.87
71807;BMP280;59655;42.590;23.364;2023-04-24T01:45:40;91165.25;;;10.82
71807;BMP280;59655;42.590;23.364;2023-04-24T01:48:06;91161.72;;;10.80
71807;BMP280;59655;42.590;23.364;2023-04-24T01:50:31;91165.06;;;10.80
71807;BMP280;59655;42.590;23.364;2023-04-24T01:52:57;91156.56;;;10.82
71807;BMP280;59655;42.590;23.364;2023-04-24T01:55:22;91169.59;;;10.87
71807;BMP280;59655;42.590;23.364;2023-04-24T01:57:48;91160.94;;;10.87
71807;BMP280;59655;42.590;23.364;2023-04-24T02:00:14;91152.84;;;10.85
71807;BMP280;59655;42.590;23.364;2023-04-24T02:02:40;91145.25;;;10.81
71807;BMP280;59655;42.590;23.364;2023-04-24T02:05:07;91151.09;;;10.80
71807;BMP280;59655;42.590;23.364;2023-04-24T02:07:32;91139.09;;;10.79
71807;BMP280;59655;42.590;23.364;2023-04-24T02:09:58;91141.59;;;10.77
71807;BMP280;59655;42.590;23.364;2023-04-24T02:12:23;91148.13;;;10.75
71807;BMP280;59655;42.590;23.364;2023-04-24T02:14:49;91152.56;;;10.73
71807;BMP280;59655;42.590;23.364;2023-04-24T02:17:14;91152.56;;;10.73
71807;BMP280;59655;42.590;23.364;2023-04-24T02:19:41;91156.44;;;10.47
71807;BMP280;59655;42.590;23.364;2023-04-24T02:22:06;91151.94;;;10.32
71807;BMP280;59655;42.590;23.364;2023-04-24T02:24:32;91150.59;;;10.23
71807;BMP280;59655;42.590;23.364;2023-04-24T02:26:57;91158.97;;;10.37
71807;BMP280;59655;42.590;23.364;2023-04-24T02:29:23;91157.34;;;10.49
71807;BMP280;59655;42.590;23.364;2023-04-24T02:31:48;91158.63;;;10.41
71807;BMP280;59655;42.590;23.364;2023-04-24T02:34:14;91159.50;;;10.43
71807;BMP280;59655;42.590;23.364;2023-04-24T02:36:39;91157.41;;;10.42
71807;BMP280;59655;42.590;23.364;2023-04-24T02:39:05;91148.22;;;10.02
71807;BMP280;59655;42.590;23.364;2023-04-24T02:41:30;91150.72;;;10.00
71807;BMP280;59655;42.590;23.364;2023-04-24T02:44:00;91147.63;;;10.19
71807;BMP280;59655;42.590;23.364;2023-04-24T02:46:26;91141.75;;;10.28
71807;BMP280;59655;42.590;23.364;2023-04-24T02:48:52;91147.72;;;10.29
71807;BMP280;59655;42.590;23.364;2023-04-24T02:51:17;91148.13;;;10.25
71807;BMP280;59655;42.590;23.364;2023-04-24T02:53:43;91138.47;;;10.05
71807;BMP280;59655;42.590;23.364;2023-04-24T02:56:08;91136.16;;;10.17
71807;BMP280;59655;42.590;23.364;2023-04-24T02:58:33;91136.94;;;10.02
71807;BMP280;59655;42.590;23.364;2023-04-24T03:00:59;91140.97;;;10.03
71807;BMP280;59655;42.590;23.364;2023-04-24T03:03:25;91143.03;;;10.12
71807;BMP280;59655;42.590;23.364;2023-04-24T03:05:50;91135.44;;;10.16
71807;BMP280;59655;42.590;23.364;2023-04-24T03:08:16;91129.06;;;10.19
71807;BMP280;59655;42.590;23.364;2023-04-24T03:10:41;91140.03;;;10.16
71807;BMP280;59655;42.590;23.364;2023-04-24T03:13:07;91140.25;;;10.02
71807;BMP280;59655;42.590;23.364;2023-04-24T03:15:32;91140.13;;;10.00
71807;BMP280;59655;42.590;23.364;2023-04-24T03:17:58;91141.16;;;9.97
71807;BMP280;59655;42.590;23.364;2023-04-24T03:20:23;91147.03;;;9.96
71807;BMP280;59655;42.590;23.364;2023-04-24T03:22:49;91146.69;;;9.92
71807;BMP280;59655;42.590;23.364;2023-04-24T03:25:14;91152.31;;;9.96
71807;BMP280;59655;42.590;23.364;2023-04-24T03:27:40;91148.25;;;9.95
71807;BMP280;59655;42.590;23.364;2023-04-24T03:30:09;91147.28;;;9.82
71807;BMP280;59655;42.590;23.364;2023-04-24T03:32:35;91143.19;;;9.81
71807;BMP280;59655;42.590;23.364;2023-04-24T03:35:01;91149.19;;;9.82
71807;BMP280;59655;42.590;23.364;2023-04-24T03:37:26;91156.19;;;9.95
71807;BMP280;59655;42.590;23.364;2023-04-24T03:39:52;91146.88;;;9.94
71807;BMP280;59655;42.590;23.364;2023-04-24T03:42:17;91146.50;;;9.89
71807;BMP280;59655;42.590;23.364;2023-04-24T03:44:43;91143.38;;;9.83
71807;BMP280;59655;42.590;23.364;2023-04-24T03:47:08;91152.75;;;9.84
71807;BMP280;59655;42.590;23.364;2023-04-24T03:49:33;91149.06;;;9.72
71807;BMP280;59655;42.590;23.364;2023-04-24T03:51:59;91157.66;;;9.88
71807;BMP280;59655;42.590;23.364;2023-04-24T03:54:24;91145.84;;;9.81
71807;BMP280;59655;42.590;23.364;2023-04-24T03:56:50;91154.31;;;9.80
71807;BMP280;59655;42.590;23.364;2023-04-24T03:59:16;91147.09;;;9.80
71807;BMP280;59655;42.590;23.364;2023-04-24T04:01:41;91146.75;;;9.84
71807;BMP280;59655;42.590;23.364;2023-04-24T04:04:06;91141.03;;;9.87
71807;BMP280;59655;42.590;23.364;2023-04-24T04:06:33;91142.44;;;9.96
71807;BMP280;59655;42.590;23.364;2023-04-24T04:08:58;91149.41;;;9.84
71807;BMP280;59655;42.590;23.364;2023-04-24T04:11:24;91145.84;;;9.81
71807;BMP280;59655;42.590;23.364;2023-04-24T04:13:50;91145.28;;;9.91
71807;BMP280;59655;42.590;23.364;2023-04-24T04:16:15;91155.72;;;9.88
71807;BMP280;59655;42.590;23.364;2023-04-24T04:18:44;91155.88;;;9.91
71807;BMP280;59655;42.590;23.364;2023-04-24T04:21:10;91166.09;;;10.02
71807;BMP280;59655;42.590;23.364;2023-04-24T04:23:36;91161.31;;;10.00
71807;BMP280;59655;42.590;23.364;2023-04-24T04:26:02;91157.94;;;10.07
71807;BMP280;59655;42.590;23.364;2023-04-24T04:28:28;91167.66;;;9.97
71807;BMP280;59655;42.590;23.364;2023-04-24T04:30:53;91160.94;;;10.04
71807;BMP280;59655;42.590;23.364;2023-04-24T04:33:21;91160.38;;;10.13
71807;BMP280;59655;42.590;23.364;2023-04-24T04:35:46;91162.66;;;10.17
71807;BMP280;59655;42.590;23.364;2023-04-24T04:38:17;91155.91;;;10.23
71807;BMP280;59655;42.590;23.364;2023-04-24T04:40:43;91160.63;;;10.32
71807;BMP280;59655;42.590;23.364;2023-04-24T04:43:09;91144.53;;;10.30
71807;BMP280;59655;42.590;23.364;2023-04-24T04:45:37;91163.44;;;10.35
71807;BMP280;59655;42.590;23.364;2023-04-24T04:48:05;91164.28;;;10.37
71807;BMP280;59655;42.590;23.364;2023-04-24T04:50:33;91166.28;;;10.37
71807;BMP280;59655;42.590;23.364;2023-04-24T04:52:58;91167.31;;;10.34
71807;BMP280;59655;42.590;23.364;2023-04-24T04:55:24;91168.06;;;10.34
71807;BMP280;59655;42.590;23.364;2023-04-24T04:57:49;91181.56;;;10.46
71807;BMP280;59655;42.590;23.364;2023-04-24T05:00:15;91184.09;;;10.44
71807;BMP280;59655;42.590;23.364;2023-04-24T05:02:41;91183.50;;;10.45
71807;BMP280;59655;42.590;23.364;2023-04-24T05:05:07;91186.88;;;10.46
71807;BMP280;59655;42.590;23.364;2023-04-24T05:07:33;91188.44;;;10.49
71807;BMP280;59655;42.590;23.364;2023-04-24T05:09:58;91175.19;;;10.49
71807;BMP280;59655;42.590;23.364;2023-04-24T05:12:24;91187.06;;;10.48
71807;BMP280;59655;42.590;23.364;2023-04-24T05:14:49;91189.72;;;10.48
71807;BMP280;59655;42.590;23.364;2023-04-24T05:17:15;91187.81;;;10.41
71807;BMP280;59655;42.590;23.364;2023-04-24T05:19:40;91188.63;;;10.18
71807;BMP280;59655;42.590;23.364;2023-04-24T05:22:06;91192.31;;;10.23
71807;BMP280;59655;42.590;23.364;2023-04-24T05:24:35;91189.59;;;10.38
71807;BMP280;59655;42.590;23.364;2023-04-24T05:27:04;91187.66;;;10.31
71807;BMP280;59655;42.590;23.364;2023-04-24T05:29:30;91188.06;;;10.27
71807;BMP280;59655;42.590;23.364;2023-04-24T05:31:58;91184.84;;;10.37
71807;BMP280;59655;42.590;23.364;2023-04-24T05:34:24;91192.56;;;10.42
71807;BMP280;59655;42.590;23.364;2023-04-24T05:36:50;91187.75;;;10.48
71807;BMP280;59655;42.590;23.364;2023-04-24T05:39:15;91190.75;;;10.52
71807;BMP280;59655;42.590;23.364;2023-04-24T05:41:41;91192.31;;;10.56
71807;BMP280;59655;42.590;23.364;2023-04-24T05:44:06;91192.25;;;10.63
71807;BMP280;59655;42.590;23.364;2023-04-24T05:46:32;91196.66;;;10.68
71807;BMP280;59655;42.590;23.364;2023-04-24T05:48:57;91189.94;;;10.67
71807;BMP280;59655;42.590;23.364;2023-04-24T05:51:23;91199.84;;;10.67
71807;BMP280;59655;42.590;23.364;2023-04-24T05:53:49;91195.25;;;10.67
71807;BMP280;59655;42.590;23.364;2023-04-24T05:56:14;91197.16;;;10.74
71807;BMP280;59655;42.590;23.364;2023-04-24T05:58:40;91188.09;;;10.78
71807;BMP280;59655;42.590;23.364;2023-04-24T06:01:06;91189.31;;;10.84
71807;BMP280;59655;42.590;23.364;2023-04-24T06:03:31;91181.66;;;10.88
71807;BMP280;59655;42.590;23.364;2023-04-24T06:05:57;91178.78;;;10.94
71807;BMP280;59655;42.590;23.364;2023-04-24T06:08:22;91184.94;;;10.96
71807;BMP280;59655;42.590;23.364;2023-04-24T06:10:47;91181.22;;;11.00
71807;BMP280;59655;42.590;23.364;2023-04-24T06:13:13;91182.09;;;11.02
71807;BMP280;59655;42.590;23.364;2023-04-24T06:15:38;91187.16;;;11.08
71807;BMP280;59655;42.590;23.364;2023-04-24T06:18:04;91188.69;;;11.11
71807;BMP280;59655;42.590;23.364;2023-04-24T06:20:29;91195.59;;;11.14
71807;BMP280;59655;42.590;23.364;2023-04-24T06:22:55;91192.41;;;11.15
71807;BMP280;59655;42.590;23.364;2023-04-24T06:25:20;91193.97;;;11.18
71807;BMP280;59655;42.590;23.364;2023-04-24T06:27:46;91193.56;;;11.22
71807;BMP280;59655;42.590;23.364;2023-04-24T06:30:11;91187.03;;;11.23
71807;BMP280;59655;42.590;23.364;2023-04-24T06:32:37;91187.91;;;11.26
71807;BMP280;59655;42.590;23.364;2023-04-24T06:35:03;91190.56;;;11.26
71807;BMP280;59655;42.590;23.364;2023-04-24T06:37:29;91181.31;;;11.27
71807;BMP280;59655;42.590;23.364;2023-04-24T06:39:54;91186.06;;;11.28
71807;BMP280;59655;42.590;23.364;2023-04-24T06:42:20;91186.97;;;11.31
71807;BMP280;59655;42.590;23.364;2023-04-24T06:44:49;91195.78;;;11.33
71807;BMP280;59655;42.590;23.364;2023-04-24T06:47:15;91201.94;;;11.36
71807;BMP280;59655;42.590;23.364;2023-04-24T06:49:56;91192.38;;;11.40
71807;BMP280;59655;42.590;23.364;2023-04-24T06:52:22;91191.66;;;11.40
71807;BMP280;59655;42.590;23.364;2023-04-24T06:54:48;91200.47;;;11.43
71807;BMP280;59655;42.590;23.364;2023-04-24T06:57:21;91205.66;;;11.40
71807;BMP280;59655;42.590;23.364;2023-04-24T06:59:49;91208.59;;;11.45
71807;BMP280;59655;42.590;23.364;2023-04-24T07:02:17;91206.66;;;11.45
71807;BMP280;59655;42.590;23.364;2023-04-24T07:04:45;91202.03;;;11.46
71807;BMP280;59655;42.590;23.364;2023-04-24T07:07:19;91203.06;;;11.50
71807;BMP280;59655;42.590;23.364;2023-04-24T07:09:49;91206.56;;;11.53
71807;BMP280;59655;42.590;23.364;2023-04-24T07:12:16;91196.28;;;11.57
71807;BMP280;59655;42.590;23.364;2023-04-24T07:14:42;91195.16;;;11.60
71807;BMP280;59655;42.590;23.364;2023-04-24T07:17:12;91200.47;;;11.60
71807;BMP280;59655;42.590;23.364;2023-04-24T07:19:38;91197.44;;;11.64
71807;BMP280;59655;42.590;23.364;2023-04-24T07:22:04;91200.25;;;11.66
71807;BMP280;59655;42.590;23.364;2023-04-24T07:24:30;91193.66;;;11.67
71807;BMP280;59655;42.590;23.364;2023-04-24T07:26:59;91197.06;;;11.67
71807;BMP280;59655;42.590;23.364;2023-04-24T07:29:26;91196.09;;;11.72
71807;BMP280;59655;42.590;23.364;2023-04-24T07:31:51;91196.09;;;11.72
71807;BMP280;59655;42.590;23.364;2023-04-24T07:34:19;91196.97;;;11.75
71807;BMP280;59655;42.590;23.364;2023-04-24T07:36:45;91192.19;;;11.73
71807;BMP280;59655;42.590;23.364;2023-04-24T07:39:11;91190.38;;;11.76
71807;BMP280;59655;42.590;23.364;2023-04-24T07:41:36;91183.28;;;11.78
71807;BMP280;59655;42.590;23.364;2023-04-24T07:44:02;91185.41;;;11.80
71807;BMP280;59655;42.590;23.364;2023-04-24T07:46:27;91178.81;;;11.81
71807;BMP280;59655;42.590;23.364;2023-04-24T07:48:55;91179.53;;;11.81
71807;BMP280;59655;42.590;23.364;2023-04-24T07:51:20;91179.53;;;11.81
71807;BMP280;59655;42.590;23.364;2023-04-24T07:53:46;91174.91;;;11.82
71807;BMP280;59655;42.590;23.364;2023-04-24T07:56:11;91176.16;;;11.81
71807;BMP280;59655;42.590;23.364;2023-04-24T07:58:37;91175.06;;;11.84
71807;BMP280;59655;42.590;23.364;2023-04-24T08:01:02;91176.31;;;11.83
71807;BMP280;59655;42.590;23.364;2023-04-24T08:03:27;91183.19;;;11.86
71807;BMP280;59655;42.590;23.364;2023-04-24T08:05:53;91184.22;;;11.91
71807;BMP280;59655;42.590;23.364;2023-04-24T08:08:21;91174.44;;;11.93
71807;BMP280;59655;42.590;23.364;2023-04-24T08:10:47;91186.78;;;11.98
71807;BMP280;59655;42.590;23.364;2023-04-24T08:13:12;91173.22;;;12.04
71807;BMP280;59655;42.590;23.364;2023-04-24T08:15:38;91169.31;;;12.05
71807;BMP280;59655;42.590;23.364;2023-04-24T08:18:03;91175.78;;;12.12
71807;BMP280;59655;42.590;23.364;2023-04-24T08:20:30;91165.91;;;12.22
71807;BMP280;59655;42.590;23.364;2023-04-24T08:22:55;91162.16;;;12.25
71807;BMP280;59655;42.590;23.364;2023-04-24T08:25:21;91166.75;;;12.24
71807;BMP280;59655;42.590;23.364;2023-04-24T08:27:48;91160.88;;;12.26
71807;BMP280;59655;42.590;23.364;2023-04-24T08:30:13;91170.88;;;12.35
71807;BMP280;59655;42.590;23.364;2023-04-24T08:32:39;91159.97;;;12.41
71807;BMP280;59655;42.590;23.364;2023-04-24T08:35:05;91152.59;;;12.49
71807;BMP280;59655;42.590;23.364;2023-04-24T08:37:30;91157.38;;;12.50
71807;BMP280;59655;42.590;23.364;2023-04-24T08:39:56;91158.06;;;12.51
71807;BMP280;59655;42.590;23.364;2023-04-24T08:42:21;91150.06;;;12.51
71807;BMP280;59655;42.590;23.364;2023-04-24T08:44:53;91156.81;;;12.52
71807;BMP280;59655;42.590;23.364;2023-04-24T08:47:27;91146.19;;;12.62
71807;BMP280;59655;42.590;23.364;2023-04-24T08:49:56;91153.19;;;12.57
71807;BMP280;59655;42.590;23.364;2023-04-24T08:52:25;91146.72;;;12.60
71807;BMP280;59655;42.590;23.364;2023-04-24T08:54:59;91148.47;;;12.65
71807;BMP280;59655;42.590;23.364;2023-04-24T08:57:27;91149.28;;;12.68
71807;BMP280;59655;42.590;23.364;2023-04-24T08:59:53;91143.03;;;12.73
71807;BMP280;59655;42.590;23.364;2023-04-24T09:02:20;91140.91;;;12.81
71807;BMP280;59655;42.590;23.364;2023-04-24T09:04:52;91144.16;;;12.89
71807;BMP280;59655;42.590;23.364;2023-04-24T09:07:22;91139.69;;;13.02
71807;BMP280;59655;42.590;23.364;2023-04-24T09:09:53;91129.75;;;13.12
71807;BMP280;59655;42.590;23.364;2023-04-24T09:12:24;91125.94;;;13.15
71807;BMP280;59655;42.590;23.364;2023-04-24T09:14:52;91130.88;;;13.19
71807;BMP280;59655;42.590;23.364;2023-04-24T09:17:20;91135.09;;;13.31
71807;BMP280;59655;42.590;23.364;2023-04-24T09:19:49;91127.38;;;13.35
71807;BMP280;59655;42.590;23.364;2023-04-24T09:22:20;91136.06;;;13.36
71807;BMP280;59655;42.590;23.364;2023-04-24T09:24:45;91123.31;;;13.44
71807;BMP280;59655;42.590;23.364;2023-04-24T09:27:22;91125.69;;;13.50
71807;BMP280;59655;42.590;23.364;2023-04-24T09:29:59;91116.59;;;13.53
71807;BMP280;59655;42.590;23.364;2023-04-24T09:32:25;91117.53;;;13.57
71807;BMP280;59655;42.590;23.364;2023-04-24T09:35:11;91123.16;;;13.61
71807;BMP280;59655;42.590;23.364;2023-04-24T09:37:45;91116.16;;;13.56
71807;BMP280;59655;42.590;23.364;2023-04-24T09:40:19;91117.41;;;13.55
71807;BMP280;59655;42.590;23.364;2023-04-24T09:45:11;91112.06;;;13.55
71807;BMP280;59655;42.590;23.364;2023-04-24T09:47:40;91117.41;;;13.65
71807;BMP280;59655;42.590;23.364;2023-04-24T09:50:14;91116.69;;;13.65
71807;BMP280;59655;42.590;23.364;2023-04-24T09:52:41;91117.09;;;13.71
71807;BMP280;59655;42.590;23.364;2023-04-24T09:55:11;91113.03;;;13.70
71807;BMP280;59655;42.590;23.364;2023-04-24T09:57:59;91102.22;;;13.77
71807;BMP280;59655;42.590;23.364;2023-04-24T10:00:33;91095.03;;;13.80
71807;BMP280;59655;42.590;23.364;2023-04-24T10:03:01;91093.22;;;13.82
71807;BMP280;59655;42.590;23.364;2023-04-24T10:05:31;91091.81;;;13.91
71807;BMP280;59655;42.590;23.364;2023-04-24T10:08:15;91087.84;;;14.02
71807;BMP280;59655;42.590;23.364;2023-04-24T10:10:45;91085.13;;;14.12
71807;BMP280;59655;42.590;23.364;2023-04-24T10:13:12;91082.91;;;14.08
71807;BMP280;59655;42.590;23.364;2023-04-24T10:15:38;91082.13;;;14.17
71807;BMP280;59655;42.590;23.364;2023-04-24T10:18:05;91076.69;;;14.15
71807;BMP280;59655;42.590;23.364;2023-04-24T10:20:32;91073.72;;;14.21
71807;BMP280;59655;42.590;23.364;2023-04-24T10:23:00;91076.22;;;14.28
71807;BMP280;59655;42.590;23.364;2023-04-24T10:25:37;91061.31;;;14.35
71807;BMP280;59655;42.590;23.364;2023-04-24T10:28:14;91055.72;;;14.53
71807;BMP280;59655;42.590;23.364;2023-04-24T10:30:42;91061.63;;;14.51
71807;BMP280;59655;42.590;23.364;2023-04-24T10:33:08;91059.59;;;14.61
71807;BMP280;59655;42.590;23.364;2023-04-24T10:36:01;91057.31;;;14.67
71807;BMP280;59655;42.590;23.364;2023-04-24T10:38:29;91048.97;;;14.73
71807;BMP280;59655;42.590;23.364;2023-04-24T10:41:18;91064.97;;;14.73
71807;BMP280;59655;42.590;23.364;2023-04-24T10:43:58;91053.88;;;14.77
71807;BMP280;59655;42.590;23.364;2023-04-24T10:46:30;91047.53;;;14.82
71807;BMP280;59655;42.590;23.364;2023-04-24T10:48:56;91054.13;;;14.81
71807;BMP280;59655;42.590;23.364;2023-04-24T10:51:23;91046.81;;;14.81
71807;BMP280;59655;42.590;23.364;2023-04-24T10:53:53;91058.44;;;14.86
71807;BMP280;59655;42.590;23.364;2023-04-24T10:56:22;91053.78;;;15.08
71807;BMP280;59655;42.590;23.364;2023-04-24T10:58:53;91037.75;;;15.08
71807;BMP280;59655;42.590;23.364;2023-04-24T11:01:29;91033.03;;;15.18
71807;BMP280;59655;42.590;23.364;2023-04-24T11:03:56;91043.88;;;15.32
71807;BMP280;59655;42.590;23.364;2023-04-24T11:09:08;91034.22;;;15.38
71807;BMP280;59655;42.590;23.364;2023-04-24T11:11:36;91036.13;;;15.14
71807;BMP280;59655;42.590;23.364;2023-04-24T11:14:04;91030.78;;;15.14
71807;BMP280;59655;42.590;23.364;2023-04-24T11:16:54;91033.38;;;14.91
71807;BMP280;59655;42.590;23.364;2023-04-24T11:19:26;91032.66;;;14.90
71807;BMP280;59655;42.590;23.364;2023-04-24T11:27:12;91049.03;;;14.85
71807;BMP280;59655;42.590;23.364;2023-04-24T11:32:40;91078.28;;;14.40
71807;BMP280;59655;42.590;23.364;2023-04-24T11:35:19;91070.91;;;14.19
71807;BMP280;59655;42.590;23.364;2023-04-24T11:37:49;91095.22;;;14.13
71807;BMP280;59655;42.590;23.364;2023-04-24T11:40:17;91105.66;;;14.09
71807;BMP280;59655;42.590;23.364;2023-04-24T11:42:47;91103.72;;;13.90
71807;BMP280;59655;42.590;23.364;2023-04-24T11:45:39;91111.03;;;13.80
71807;BMP280;59655;42.590;23.364;2023-04-24T11:48:18;91103.34;;;13.84
71807;BMP280;59655;42.590;23.364;2023-04-24T11:50:46;91094.03;;;13.95
71807;BMP280;59655;42.590;23.364;2023-04-24T11:53:11;91091.66;;;13.89
71807;BMP280;59655;42.590;23.364;2023-04-24T11:55:37;91088.59;;;13.83
71807;BMP280;59655;42.590;23.364;2023-04-24T11:58:02;91067.13;;;13.81
71807;BMP280;59655;42.590;23.364;2023-04-24T12:00:29;91049.19;;;13.72
71807;BMP280;59655;42.590;23.364;2023-04-24T12:03:07;91045.44;;;13.55
71807;BMP280;59655;42.590;23.364;2023-04-24T12:05:33;91049.09;;;13.50
71807;BMP280;59655;42.590;23.364;2023-04-24T12:07:59;91039.78;;;13.61
71807;BMP280;59655;42.590;23.364;2023-04-24T12:10:28;91038.28;;;13.58
71807;BMP280;59655;42.590;23.364;2023-04-24T12:12:56;91025.97;;;13.53
71807;BMP280;59655;42.590;23.364;2023-04-24T12:15:22;91017.97;;;13.53
71807;BMP280;59655;42.590;23.364;2023-04-24T12:17:50;91008.31;;;13.38
71807;BMP280;59655;42.590;23.364;2023-04-24T12:20:16;91012.69;;;13.33
71807;BMP280;59655;42.590;23.364;2023-04-24T12:22:55;91013.63;;;13.28
71807;BMP280;59655;42.590;23.364;2023-04-24T12:25:26;91030.06;;;13.25
71807;BMP280;59655;42.590;23.364;2023-04-24T12:28:08;91042.53;;;13.22
71807;BMP280;59655;42.590;23.364;2023-04-24T12:30:46;91045.34;;;12.95
71807;BMP280;59655;42.590;23.364;2023-04-24T12:33:17;91049.84;;;12.83
71807;BMP280;59655;42.590;23.364;2023-04-24T12:35:43;91036.69;;;12.85
71807;BMP280;59655;42.590;23.364;2023-04-24T12:38:10;91030.63;;;12.65
71807;BMP280;59655;42.590;23.364;2023-04-24T12:40:37;91004.44;;;13.20
71807;BMP280;59655;42.590;23.364;2023-04-24T12:43:21;90995.13;;;13.40
71807;BMP280;59655;42.590;23.364;2023-04-24T12:45:48;90997.88;;;13.61
71807;BMP280;59655;42.590;23.364;2023-04-24T12:48:13;90998.56;;;13.62
71807;BMP280;59655;42.590;23.364;2023-04-24T12:50:41;90986.22;;;13.57
71807;BMP280;59655;42.590;23.364;2023-04-24T12:53:08;90980.22;;;13.56
71807;BMP280;59655;42.590;23.364;2023-04-24T12:55:34;90966.84;;;13.66
71807;BMP280;59655;42.590;23.364;2023-04-24T12:57:59;90953.63;;;13.68
71807;BMP280;59655;42.590;23.364;2023-04-24T13:00:25;90962.47;;;13.71
71807;BMP280;59655;42.590;23.364;2023-04-24T13:02:51;90948.44;;;13.70
71807;BMP280;59655;42.590;23.364;2023-04-24T13:05:16;90952.69;;;14.38
71807;BMP280;59655;42.590;23.364;2023-04-24T13:07:42;90947.53;;;15.41
71807;BMP280;59655;42.590;23.364;2023-04-24T13:10:08;90943.19;;;16.95
71807;BMP280;59655;42.590;23.364;2023-04-24T13:12:34;90925.81;;;17.77
71807;BMP280;59655;42.590;23.364;2023-04-24T13:15:00;90932.28;;;17.86
71807;BMP280;59655;42.590;23.364;2023-04-24T13:17:25;90913.38;;;17.98
71807;BMP280;59655;42.590;23.364;2023-04-24T13:19:54;90920.25;;;17.87
71807;BMP280;59655;42.590;23.364;2023-04-24T13:22:20;90923.59;;;18.01
71807;BMP280;59655;42.590;23.364;2023-04-24T13:24:45;90919.75;;;17.77
71807;BMP280;59655;42.590;23.364;2023-04-24T13:27:14;90924.41;;;17.35
71807;BMP280;59655;42.590;23.364;2023-04-24T13:29:40;90923.22;;;17.24
71807;BMP280;59655;42.590;23.364;2023-04-24T13:32:05;90921.66;;;17.60
71807;BMP280;59655;42.590;23.364;2023-04-24T13:34:31;90920.56;;;17.93
71807;BMP280;59655;42.590;23.364;2023-04-24T13:36:57;90901.66;;;18.96
71807;BMP280;59655;42.590;23.364;2023-04-24T13:39:24;90903.47;;;19.88
71807;BMP280;59655;42.590;23.364;2023-04-24T13:41:50;90902.16;;;20.78
71807;BMP280;59655;42.590;23.364;2023-04-24T13:44:16;90893.31;;;20.96
71807;BMP280;59655;42.590;23.364;2023-04-24T13:46:43;90890.13;;;21.01
71807;BMP280;59655;42.590;23.364;2023-04-24T13:49:15;90889.72;;;20.89
71807;BMP280;59655;42.590;23.364;2023-04-24T13:51:41;90886.25;;;20.13
71807;BMP280;59655;42.590;23.364;2023-04-24T13:54:07;90883.69;;;19.99
71807;BMP280;59655;42.590;23.364;2023-04-24T13:56:33;90883.91;;;19.54
71807;BMP280;59655;42.590;23.364;2023-04-24T13:58:58;90878.28;;;19.48
71807;BMP280;59655;42.590;23.364;2023-04-24T14:01:24;90869.06;;;19.35
71807;BMP280;59655;42.590;23.364;2023-04-24T14:03:53;90875.44;;;19.77
71807;BMP280;59655;42.590;23.364;2023-04-24T14:06:19;90863.69;;;20.40
71807;BMP280;59655;42.590;23.364;2023-04-24T14:08:45;90864.06;;;19.45
71807;BMP280;59655;42.590;23.364;2023-04-24T14:11:11;90867.06;;;19.87